Philadelphia, Pennsylvania
Current Conditions -  °F | °C
As of 11:54 AM on Saturday 22 Nov 2014 (Local Time) from KPHL Reporting Station
Scattered Clouds Scattered Clouds  
Wind Chill: 33°   Ceiling: Unl
Heat Index: 41°   Visibility: 10mi
Dew Point: 16°   Wind: 15mph
Humidity: 36%   Direction: 220°SW
Pressure: 30.43"   Gusts: NA
Location:  39.95°N, 75.16°W
Report Text: KPHL 221654Z 22013KT 10SM FEW200 SCT260 05/M09 A3043 RMK AO2 SLP304 T00501089 $
Loading
Personal Weather Stations






























Interactive Weather Map New forecast layout! Learn more

10-Day Weather Forecast

Advertisements
Track Severe Weather on mobile